Incline Village, Nevada
Current Conditions -  °F | °C
As of 6:35 AM on Thursday 30 Oct 2014 (Local Time) from KTRK Reporting Station
Moderate Fog Moderate Fog  
Wind Chill: 27°   Ceiling: 200
Heat Index: 27°   Visibility: 0.5mi
Dew Point: 27°   Wind: 0mph
Humidity: 100%   Direction: NA
Pressure: 30.2"   Gusts: NA
Location:  39.25°N, 119.97°W
Report Text: KTRK 301335Z AUTO 00000KT 1/2SM FZFG OVC002 M03/M03 A3020 RMK AO2
Loading
Personal Weather Stations






























Interactive Weather Map
Tropical Storm Tracking
New forecast layout! Learn more

10-Day Weather Forecast

Advertisements
Track Severe Weather on mobile